Lake Arthur, Louisiana
Current Conditions -  °F | °C
As of 10:35 AM on Tuesday 21 Oct 2014 (Local Time) from K3R7 Reporting Station
Clear Clear  
Wind Chill: 22°   Ceiling: Unl
Heat Index: 22°   Visibility: 10mi
Dew Point: 13°   Wind: 9mph
Humidity: 58%   Direction: 60°ENE
Pressure: 30.08"   Gusts: NA
Location:  30.08°N, 92.67°W
Report Text: K3R7 211535Z AUTO 06008KT 10SM CLR 22/13 A3008 RMK AO2 T02160129
Loading
Personal Weather Stations






























Interactive Weather Map
Tropical Storm Tracking
New forecast layout! Learn more

10-Day Weather Forecast

Advertisements
Track Severe Weather on mobile